sensor_id;sensor_type;location;lat;lon;timestamp;P1;durP1;ratioP1;P2;durP2;ratioP2
58581;SDS011;44361;51.476;5.700;2024-03-22T00:01:16;59.17;;;24.48;;
58581;SDS011;44361;51.476;5.700;2024-03-22T00:03:41;58.35;;;25.17;;
58581;SDS011;44361;51.476;5.700;2024-03-22T00:06:07;61.17;;;25.27;;
58581;SDS011;44361;51.476;5.700;2024-03-22T00:08:33;60.63;;;25.45;;
58581;SDS011;44361;51.476;5.700;2024-03-22T00:10:58;58.75;;;24.10;;
58581;SDS011;44361;51.476;5.700;2024-03-22T00:13:24;66.93;;;26.33;;
58581;SDS011;44361;51.476;5.700;2024-03-22T00:15:49;59.20;;;25.83;;
58581;SDS011;44361;51.476;5.700;2024-03-22T00:18:15;65.30;;;24.73;;
58581;SDS011;44361;51.476;5.700;2024-03-22T00:20:41;62.05;;;25.50;;
58581;SDS011;44361;51.476;5.700;2024-03-22T00:23:06;58.75;;;24.73;;
58581;SDS011;44361;51.476;5.700;2024-03-22T00:25:32;68.03;;;26.27;;
58581;SDS011;44361;51.476;5.700;2024-03-22T00:27:57;66.15;;;25.92;;
58581;SDS011;44361;51.476;5.700;2024-03-22T00:30:23;64.97;;;27.67;;
58581;SDS011;44361;51.476;5.700;2024-03-22T00:32:48;61.53;;;26.52;;
58581;SDS011;44361;51.476;5.700;2024-03-22T00:35:14;65.05;;;27.27;;
58581;SDS011;44361;51.476;5.700;2024-03-22T00:37:40;67.18;;;27.90;;
58581;SDS011;44361;51.476;5.700;2024-03-22T00:40:05;72.13;;;28.00;;
58581;SDS011;44361;51.476;5.700;2024-03-22T00:42:31;67.22;;;27.83;;
58581;SDS011;44361;51.476;5.700;2024-03-22T00:44:57;65.95;;;25.83;;
58581;SDS011;44361;51.476;5.700;2024-03-22T00:47:23;69.95;;;26.98;;
58581;SDS011;44361;51.476;5.700;2024-03-22T00:49:48;60.30;;;27.52;;
58581;SDS011;44361;51.476;5.700;2024-03-22T00:52:14;65.05;;;28.02;;
58581;SDS011;44361;51.476;5.700;2024-03-22T00:54:40;59.75;;;26.73;;
58581;SDS011;44361;51.476;5.700;2024-03-22T00:57:05;60.20;;;25.50;;
58581;SDS011;44361;51.476;5.700;2024-03-22T00:59:31;66.22;;;28.55;;
58581;SDS011;44361;51.476;5.700;2024-03-22T01:01:57;61.72;;;27.50;;
58581;SDS011;44361;51.476;5.700;2024-03-22T01:04:23;67.85;;;28.15;;
58581;SDS011;44361;51.476;5.700;2024-03-22T01:06:48;62.47;;;27.42;;
58581;SDS011;44361;51.476;5.700;2024-03-22T01:09:14;70.55;;;30.10;;
58581;SDS011;44361;51.476;5.700;2024-03-22T01:11:40;63.70;;;28.05;;
58581;SDS011;44361;51.476;5.700;2024-03-22T01:14:05;64.82;;;28.55;;
58581;SDS011;44361;51.476;5.700;2024-03-22T01:16:31;66.50;;;29.55;;
58581;SDS011;44361;51.476;5.700;2024-03-22T01:18:56;74.50;;;29.05;;
58581;SDS011;44361;51.476;5.700;2024-03-22T01:21:22;59.45;;;27.00;;
58581;SDS011;44361;51.476;5.700;2024-03-22T01:23:50;66.15;;;29.38;;
58581;SDS011;44361;51.476;5.700;2024-03-22T01:26:18;63.40;;;27.05;;
58581;SDS011;44361;51.476;5.700;2024-03-22T01:28:44;64.20;;;27.63;;
58581;SDS011;44361;51.476;5.700;2024-03-22T01:31:11;63.15;;;27.75;;
58581;SDS011;44361;51.476;5.700;2024-03-22T01:33:36;65.22;;;28.73;;
58581;SDS011;44361;51.476;5.700;2024-03-22T01:36:02;59.58;;;27.42;;
58581;SDS011;44361;51.476;5.700;2024-03-22T01:38:30;66.85;;;27.75;;
58581;SDS011;44361;51.476;5.700;2024-03-22T01:40:56;64.85;;;28.38;;
58581;SDS011;44361;51.476;5.700;2024-03-22T01:43:21;66.55;;;28.98;;
58581;SDS011;44361;51.476;5.700;2024-03-22T01:45:47;68.72;;;29.45;;
58581;SDS011;44361;51.476;5.700;2024-03-22T01:48:12;74.40;;;30.65;;
58581;SDS011;44361;51.476;5.700;2024-03-22T01:50:38;65.75;;;29.30;;
58581;SDS011;44361;51.476;5.700;2024-03-22T01:53:04;70.35;;;30.23;;
58581;SDS011;44361;51.476;5.700;2024-03-22T01:55:30;68.13;;;29.83;;
58581;SDS011;44361;51.476;5.700;2024-03-22T01:57:56;69.97;;;30.08;;
58581;SDS011;44361;51.476;5.700;2024-03-22T02:00:22;63.80;;;28.63;;
58581;SDS011;44361;51.476;5.700;2024-03-22T02:02:47;62.50;;;28.05;;
58581;SDS011;44361;51.476;5.700;2024-03-22T02:08:23;68.43;;;29.77;;
58581;SDS011;44361;51.476;5.700;2024-03-22T02:10:49;69.30;;;29.48;;
58581;SDS011;44361;51.476;5.700;2024-03-22T02:13:14;71.43;;;29.02;;
58581;SDS011;44361;51.476;5.700;2024-03-22T02:15:40;65.13;;;28.67;;
58581;SDS011;44361;51.476;5.700;2024-03-22T02:18:05;64.13;;;28.92;;
58581;SDS011;44361;51.476;5.700;2024-03-22T02:20:31;69.13;;;30.05;;
58581;SDS011;44361;51.476;5.700;2024-03-22T02:22:57;67.70;;;29.45;;
58581;SDS011;44361;51.476;5.700;2024-03-22T02:25:22;68.75;;;29.38;;
58581;SDS011;44361;51.476;5.700;2024-03-22T02:27:48;64.65;;;29.83;;
58581;SDS011;44361;51.476;5.700;2024-03-22T02:30:15;66.93;;;30.35;;
58581;SDS011;44361;51.476;5.700;2024-03-22T02:32:41;67.45;;;29.67;;
58581;SDS011;44361;51.476;5.700;2024-03-22T02:35:07;68.28;;;29.88;;
58581;SDS011;44361;51.476;5.700;2024-03-22T02:37:33;71.78;;;29.80;;
58581;SDS011;44361;51.476;5.700;2024-03-22T02:39:58;62.75;;;29.02;;
58581;SDS011;44361;51.476;5.700;2024-03-22T02:42:24;67.28;;;29.50;;
58581;SDS011;44361;51.476;5.700;2024-03-22T02:44:50;64.32;;;28.73;;
58581;SDS011;44361;51.476;5.700;2024-03-22T02:47:15;67.82;;;28.73;;
58581;SDS011;44361;51.476;5.700;2024-03-22T02:49:41;64.93;;;29.17;;
58581;SDS011;44361;51.476;5.700;2024-03-22T02:52:07;71.90;;;28.38;;
58581;SDS011;44361;51.476;5.700;2024-03-22T02:54:32;64.85;;;28.58;;
58581;SDS011;44361;51.476;5.700;2024-03-22T02:56:58;63.08;;;28.52;;
58581;SDS011;44361;51.476;5.700;2024-03-22T02:59:26;61.00;;;28.38;;
58581;SDS011;44361;51.476;5.700;2024-03-22T03:01:52;64.53;;;28.25;;
58581;SDS011;44361;51.476;5.700;2024-03-22T03:04:17;65.50;;;29.15;;
58581;SDS011;44361;51.476;5.700;2024-03-22T03:06:43;68.53;;;28.35;;
58581;SDS011;44361;51.476;5.700;2024-03-22T03:09:10;59.35;;;26.23;;
58581;SDS011;44361;51.476;5.700;2024-03-22T03:11:37;57.25;;;26.77;;
58581;SDS011;44361;51.476;5.700;2024-03-22T03:14:04;65.85;;;28.02;;
58581;SDS011;44361;51.476;5.700;2024-03-22T03:16:29;55.20;;;25.63;;
58581;SDS011;44361;51.476;5.700;2024-03-22T03:18:55;54.92;;;25.77;;
58581;SDS011;44361;51.476;5.700;2024-03-22T03:21:20;50.78;;;25.33;;
58581;SDS011;44361;51.476;5.700;2024-03-22T03:23:46;50.85;;;23.98;;
58581;SDS011;44361;51.476;5.700;2024-03-22T03:26:12;55.85;;;24.60;;
58581;SDS011;44361;51.476;5.700;2024-03-22T03:28:38;54.03;;;23.67;;
58581;SDS011;44361;51.476;5.700;2024-03-22T03:31:03;48.08;;;22.25;;
58581;SDS011;44361;51.476;5.700;2024-03-22T03:33:29;52.45;;;22.70;;
58581;SDS011;44361;51.476;5.700;2024-03-22T03:35:55;47.78;;;22.92;;
58581;SDS011;44361;51.476;5.700;2024-03-22T03:38:21;49.05;;;22.25;;
58581;SDS011;44361;51.476;5.700;2024-03-22T03:40:47;45.03;;;22.67;;
58581;SDS011;44361;51.476;5.700;2024-03-22T03:43:13;47.88;;;22.73;;
58581;SDS011;44361;51.476;5.700;2024-03-22T03:45:38;47.47;;;21.98;;
58581;SDS011;44361;51.476;5.700;2024-03-22T03:48:04;45.20;;;22.60;;
58581;SDS011;44361;51.476;5.700;2024-03-22T03:50:30;43.53;;;21.23;;
58581;SDS011;44361;51.476;5.700;2024-03-22T03:52:55;44.00;;;20.88;;
58581;SDS011;44361;51.476;5.700;2024-03-22T03:55:22;43.25;;;22.52;;
58581;SDS011;44361;51.476;5.700;2024-03-22T03:57:49;43.85;;;21.58;;
58581;SDS011;44361;51.476;5.700;2024-03-22T04:00:15;48.08;;;21.77;;
58581;SDS011;44361;51.476;5.700;2024-03-22T04:02:41;44.15;;;20.80;;
58581;SDS011;44361;51.476;5.700;2024-03-22T04:05:07;46.38;;;22.50;;
58581;SDS011;44361;51.476;5.700;2024-03-22T04:07:32;44.25;;;21.48;;
58581;SDS011;44361;51.476;5.700;2024-03-22T04:09:58;45.50;;;20.52;;
58581;SDS011;44361;51.476;5.700;2024-03-22T04:12:25;46.30;;;21.52;;
58581;SDS011;44361;51.476;5.700;2024-03-22T04:14:51;42.55;;;20.58;;
58581;SDS011;44361;51.476;5.700;2024-03-22T04:17:17;48.55;;;22.13;;
58581;SDS011;44361;51.476;5.700;2024-03-22T04:19:43;43.85;;;21.30;;
58581;SDS011;44361;51.476;5.700;2024-03-22T04:22:09;47.97;;;20.75;;
58581;SDS011;44361;51.476;5.700;2024-03-22T04:24:34;41.28;;;20.67;;
58581;SDS011;44361;51.476;5.700;2024-03-22T04:27:00;47.60;;;21.95;;
58581;SDS011;44361;51.476;5.700;2024-03-22T04:29:25;45.47;;;21.85;;
58581;SDS011;44361;51.476;5.700;2024-03-22T04:31:51;41.97;;;20.52;;
58581;SDS011;44361;51.476;5.700;2024-03-22T04:34:16;44.55;;;21.80;;
58581;SDS011;44361;51.476;5.700;2024-03-22T04:36:42;37.60;;;20.73;;
58581;SDS011;44361;51.476;5.700;2024-03-22T04:39:08;45.22;;;20.35;;
58581;SDS011;44361;51.476;5.700;2024-03-22T04:41:34;38.00;;;19.58;;
58581;SDS011;44361;51.476;5.700;2024-03-22T04:44:00;38.05;;;21.02;;
58581;SDS011;44361;51.476;5.700;2024-03-22T04:46:26;42.55;;;20.67;;
58581;SDS011;44361;51.476;5.700;2024-03-22T04:48:51;47.28;;;19.98;;
58581;SDS011;44361;51.476;5.700;2024-03-22T04:51:17;40.58;;;20.45;;
58581;SDS011;44361;51.476;5.700;2024-03-22T04:53:42;41.25;;;20.77;;
58581;SDS011;44361;51.476;5.700;2024-03-22T04:56:09;41.33;;;19.30;;
58581;SDS011;44361;51.476;5.700;2024-03-22T04:58:34;41.35;;;19.40;;
58581;SDS011;44361;51.476;5.700;2024-03-22T05:01:00;39.55;;;19.38;;
58581;SDS011;44361;51.476;5.700;2024-03-22T05:03:26;41.20;;;19.67;;
58581;SDS011;44361;51.476;5.700;2024-03-22T05:05:52;36.92;;;19.75;;
58581;SDS011;44361;51.476;5.700;2024-03-22T05:08:17;36.70;;;19.55;;
58581;SDS011;44361;51.476;5.700;2024-03-22T05:10:43;41.15;;;20.13;;
58581;SDS011;44361;51.476;5.700;2024-03-22T05:13:10;38.97;;;19.98;;
58581;SDS011;44361;51.476;5.700;2024-03-22T05:15:35;40.40;;;20.23;;
58581;SDS011;44361;51.476;5.700;2024-03-22T05:18:01;40.28;;;20.17;;
58581;SDS011;44361;51.476;5.700;2024-03-22T05:20:26;42.00;;;19.65;;
58581;SDS011;44361;51.476;5.700;2024-03-22T05:22:52;44.00;;;20.52;;
58581;SDS011;44361;51.476;5.700;2024-03-22T05:25:18;46.95;;;20.02;;
58581;SDS011;44361;51.476;5.700;2024-03-22T05:27:43;37.70;;;19.40;;
58581;SDS011;44361;51.476;5.700;2024-03-22T05:30:10;39.03;;;18.75;;
58581;SDS011;44361;51.476;5.700;2024-03-22T05:32:36;43.47;;;19.23;;
58581;SDS011;44361;51.476;5.700;2024-03-22T05:35:02;41.58;;;20.50;;
58581;SDS011;44361;51.476;5.700;2024-03-22T05:37:28;39.83;;;20.13;;
58581;SDS011;44361;51.476;5.700;2024-03-22T05:39:54;35.85;;;18.60;;
58581;SDS011;44361;51.476;5.700;2024-03-22T05:42:19;46.63;;;20.27;;
58581;SDS011;44361;51.476;5.700;2024-03-22T05:44:45;37.70;;;19.25;;
58581;SDS011;44361;51.476;5.700;2024-03-22T05:47:11;40.40;;;20.25;;
58581;SDS011;44361;51.476;5.700;2024-03-22T05:49:36;35.38;;;18.80;;
58581;SDS011;44361;51.476;5.700;2024-03-22T05:52:02;35.67;;;17.27;;
58581;SDS011;44361;51.476;5.700;2024-03-22T05:54:27;33.38;;;17.95;;
58581;SDS011;44361;51.476;5.700;2024-03-22T05:56:53;36.25;;;18.75;;
58581;SDS011;44361;51.476;5.700;2024-03-22T05:59:20;39.15;;;18.50;;
58581;SDS011;44361;51.476;5.700;2024-03-22T06:01:45;36.20;;;18.75;;
58581;SDS011;44361;51.476;5.700;2024-03-22T06:04:11;34.10;;;18.17;;
58581;SDS011;44361;51.476;5.700;2024-03-22T06:06:36;34.00;;;17.38;;
58581;SDS011;44361;51.476;5.700;2024-03-22T06:09:03;35.03;;;17.27;;
58581;SDS011;44361;51.476;5.700;2024-03-22T06:11:29;32.70;;;16.98;;
58581;SDS011;44361;51.476;5.700;2024-03-22T06:13:55;35.22;;;17.67;;
58581;SDS011;44361;51.476;5.700;2024-03-22T06:16:21;34.20;;;16.75;;
58581;SDS011;44361;51.476;5.700;2024-03-22T06:18:47;30.13;;;16.15;;
58581;SDS011;44361;51.476;5.700;2024-03-22T06:21:13;31.42;;;16.30;;
58581;SDS011;44361;51.476;5.700;2024-03-22T06:23:39;32.30;;;16.10;;
58581;SDS011;44361;51.476;5.700;2024-03-22T06:26:06;29.75;;;15.20;;
58581;SDS011;44361;51.476;5.700;2024-03-22T06:28:32;29.35;;;15.73;;
58581;SDS011;44361;51.476;5.700;2024-03-22T06:30:57;35.20;;;16.60;;
58581;SDS011;44361;51.476;5.700;2024-03-22T06:33:23;32.50;;;14.93;;
58581;SDS011;44361;51.476;5.700;2024-03-22T06:35:48;26.73;;;14.88;;
58581;SDS011;44361;51.476;5.700;2024-03-22T06:38:14;31.88;;;15.13;;
58581;SDS011;44361;51.476;5.700;2024-03-22T06:40:40;31.27;;;14.90;;
58581;SDS011;44361;51.476;5.700;2024-03-22T06:43:05;31.02;;;14.95;;
58581;SDS011;44361;51.476;5.700;2024-03-22T06:45:31;29.23;;;14.48;;
58581;SDS011;44361;51.476;5.700;2024-03-22T06:47:56;30.20;;;15.00;;
58581;SDS011;44361;51.476;5.700;2024-03-22T06:50:22;29.05;;;15.02;;
58581;SDS011;44361;51.476;5.700;2024-03-22T06:52:52;26.15;;;13.88;;
58581;SDS011;44361;51.476;5.700;2024-03-22T06:55:19;28.13;;;14.32;;
58581;SDS011;44361;51.476;5.700;2024-03-22T06:57:46;23.30;;;13.02;;
58581;SDS011;44361;51.476;5.700;2024-03-22T07:00:13;27.67;;;14.02;;
58581;SDS011;44361;51.476;5.700;2024-03-22T07:02:39;25.42;;;13.15;;
58581;SDS011;44361;51.476;5.700;2024-03-22T07:05:06;31.65;;;14.82;;
58581;SDS011;44361;51.476;5.700;2024-03-22T07:07:32;28.55;;;12.77;;
58581;SDS011;44361;51.476;5.700;2024-03-22T07:09:58;32.47;;;13.43;;
58581;SDS011;44361;51.476;5.700;2024-03-22T07:12:23;27.33;;;14.18;;
58581;SDS011;44361;51.476;5.700;2024-03-22T07:14:49;29.50;;;13.85;;
58581;SDS011;44361;51.476;5.700;2024-03-22T07:17:15;25.48;;;12.25;;
58581;SDS011;44361;51.476;5.700;2024-03-22T07:19:41;26.52;;;13.68;;
58581;SDS011;44361;51.476;5.700;2024-03-22T07:22:07;24.40;;;13.30;;
58581;SDS011;44361;51.476;5.700;2024-03-22T07:24:33;25.60;;;13.05;;
58581;SDS011;44361;51.476;5.700;2024-03-22T07:26:58;25.00;;;12.77;;
58581;SDS011;44361;51.476;5.700;2024-03-22T07:29:24;27.83;;;13.40;;
58581;SDS011;44361;51.476;5.700;2024-03-22T07:31:50;26.10;;;13.07;;
58581;SDS011;44361;51.476;5.700;2024-03-22T07:34:15;26.25;;;12.90;;
58581;SDS011;44361;51.476;5.700;2024-03-22T07:36:41;27.55;;;12.65;;
58581;SDS011;44361;51.476;5.700;2024-03-22T07:39:06;26.85;;;13.15;;
58581;SDS011;44361;51.476;5.700;2024-03-22T07:41:32;26.52;;;13.30;;
58581;SDS011;44361;51.476;5.700;2024-03-22T07:43:59;26.83;;;13.55;;
58581;SDS011;44361;51.476;5.700;2024-03-22T07:46:25;23.13;;;12.82;;
58581;SDS011;44361;51.476;5.700;2024-03-22T07:48:51;24.02;;;12.70;;
58581;SDS011;44361;51.476;5.700;2024-03-22T07:51:17;26.48;;;12.20;;
58581;SDS011;44361;51.476;5.700;2024-03-22T07:53:43;23.63;;;11.93;;
58581;SDS011;44361;51.476;5.700;2024-03-22T07:56:08;25.40;;;12.10;;
58581;SDS011;44361;51.476;5.700;2024-03-22T07:58:38;22.80;;;11.93;;
58581;SDS011;44361;51.476;5.700;2024-03-22T08:01:04;21.55;;;12.52;;
58581;SDS011;44361;51.476;5.700;2024-03-22T08:03:30;21.92;;;11.15;;
58581;SDS011;44361;51.476;5.700;2024-03-22T08:05:55;20.73;;;11.32;;
58581;SDS011;44361;51.476;5.700;2024-03-22T08:08:21;21.17;;;11.10;;
58581;SDS011;44361;51.476;5.700;2024-03-22T08:10:47;19.25;;;10.90;;
58581;SDS011;44361;51.476;5.700;2024-03-22T08:13:13;21.45;;;10.80;;
58581;SDS011;44361;51.476;5.700;2024-03-22T08:15:39;20.90;;;11.05;;
58581;SDS011;44361;51.476;5.700;2024-03-22T08:18:05;22.33;;;10.90;;
58581;SDS011;44361;51.476;5.700;2024-03-22T08:20:31;19.90;;;11.70;;
58581;SDS011;44361;51.476;5.700;2024-03-22T08:22:58;17.50;;;9.90;;
58581;SDS011;44361;51.476;5.700;2024-03-22T08:25:24;18.88;;;10.30;;
58581;SDS011;44361;51.476;5.700;2024-03-22T08:27:50;21.90;;;11.40;;
58581;SDS011;44361;51.476;5.700;2024-03-22T08:30:19;23.25;;;10.52;;
58581;SDS011;44361;51.476;5.700;2024-03-22T08:32:44;18.08;;;10.75;;
58581;SDS011;44361;51.476;5.700;2024-03-22T08:35:10;20.73;;;11.20;;
58581;SDS011;44361;51.476;5.700;2024-03-22T08:37:35;18.63;;;11.18;;
58581;SDS011;44361;51.476;5.700;2024-03-22T08:40:01;19.58;;;10.43;;
58581;SDS011;44361;51.476;5.700;2024-03-22T08:42:29;20.38;;;10.75;;
58581;SDS011;44361;51.476;5.700;2024-03-22T08:44:55;18.63;;;10.30;;
58581;SDS011;44361;51.476;5.700;2024-03-22T08:47:20;19.65;;;10.18;;
58581;SDS011;44361;51.476;5.700;2024-03-22T08:49:46;19.45;;;10.73;;
58581;SDS011;44361;51.476;5.700;2024-03-22T08:52:12;19.00;;;10.50;;
58581;SDS011;44361;51.476;5.700;2024-03-22T08:54:37;17.60;;;9.90;;
58581;SDS011;44361;51.476;5.700;2024-03-22T08:57:03;20.40;;;10.38;;
58581;SDS011;44361;51.476;5.700;2024-03-22T08:59:28;16.83;;;9.90;;
58581;SDS011;44361;51.476;5.700;2024-03-22T09:01:54;17.08;;;10.27;;
58581;SDS011;44361;51.476;5.700;2024-03-22T09:04:19;18.17;;;9.75;;
58581;SDS011;44361;51.476;5.700;2024-03-22T09:06:45;17.35;;;10.43;;
58581;SDS011;44361;51.476;5.700;2024-03-22T09:09:11;17.00;;;9.43;;
58581;SDS011;44361;51.476;5.700;2024-03-22T09:11:37;18.25;;;9.68;;
58581;SDS011;44361;51.476;5.700;2024-03-22T09:14:02;19.20;;;9.25;;
58581;SDS011;44361;51.476;5.700;2024-03-22T09:16:28;17.13;;;9.88;;
58581;SDS011;44361;51.476;5.700;2024-03-22T09:18:54;15.18;;;9.32;;
58581;SDS011;44361;51.476;5.700;2024-03-22T09:21:20;18.65;;;9.15;;
58581;SDS011;44361;51.476;5.700;2024-03-22T09:23:45;16.58;;;8.80;;
58581;SDS011;44361;51.476;5.700;2024-03-22T09:26:11;17.02;;;9.55;;
58581;SDS011;44361;51.476;5.700;2024-03-22T09:28:37;18.10;;;8.57;;
58581;SDS011;44361;51.476;5.700;2024-03-22T09:31:03;17.58;;;9.18;;
58581;SDS011;44361;51.476;5.700;2024-03-22T09:33:30;13.93;;;8.57;;
58581;SDS011;44361;51.476;5.700;2024-03-22T09:35:57;15.43;;;8.60;;
58581;SDS011;44361;51.476;5.700;2024-03-22T09:38:23;20.38;;;8.80;;
58581;SDS011;44361;51.476;5.700;2024-03-22T09:40:48;14.25;;;8.55;;
58581;SDS011;44361;51.476;5.700;2024-03-22T09:43:19;15.32;;;8.25;;
58581;SDS011;44361;51.476;5.700;2024-03-22T09:45:49;13.52;;;8.45;;
58581;SDS011;44361;51.476;5.700;2024-03-22T09:48:15;15.25;;;8.25;;
58581;SDS011;44361;51.476;5.700;2024-03-22T09:50:43;14.02;;;8.05;;
58581;SDS011;44361;51.476;5.700;2024-03-22T09:53:10;15.27;;;8.52;;
58581;SDS011;44361;51.476;5.700;2024-03-22T09:55:38;12.40;;;7.90;;
58581;SDS011;44361;51.476;5.700;2024-03-22T09:58:08;12.10;;;7.43;;
58581;SDS011;44361;51.476;5.700;2024-03-22T10:00:34;13.60;;;7.65;;
58581;SDS011;44361;51.476;5.700;2024-03-22T10:02:59;11.77;;;6.93;;
58581;SDS011;44361;51.476;5.700;2024-03-22T10:05:26;15.63;;;7.93;;
58581;SDS011;44361;51.476;5.700;2024-03-22T10:07:51;11.73;;;7.45;;
58581;SDS011;44361;51.476;5.700;2024-03-22T10:10:18;12.27;;;8.07;;
58581;SDS011;44361;51.476;5.700;2024-03-22T10:12:44;13.82;;;7.07;;
58581;SDS011;44361;51.476;5.700;2024-03-22T10:15:09;12.65;;;8.02;;
58581;SDS011;44361;51.476;5.700;2024-03-22T10:17:36;12.73;;;7.47;;
58581;SDS011;44361;51.476;5.700;2024-03-22T10:20:02;15.45;;;7.88;;
58581;SDS011;44361;51.476;5.700;2024-03-22T10:22:28;15.43;;;8.23;;
58581;SDS011;44361;51.476;5.700;2024-03-22T10:24:54;14.45;;;7.47;;
58581;SDS011;44361;51.476;5.700;2024-03-22T10:27:20;16.70;;;7.57;;
58581;SDS011;44361;51.476;5.700;2024-03-22T10:29:46;14.23;;;7.10;;
58581;SDS011;44361;51.476;5.700;2024-03-22T10:32:12;19.38;;;7.65;;
58581;SDS011;44361;51.476;5.700;2024-03-22T10:34:38;16.02;;;7.88;;
58581;SDS011;44361;51.476;5.700;2024-03-22T10:37:06;13.18;;;7.75;;
58581;SDS011;44361;51.476;5.700;2024-03-22T10:39:35;13.80;;;7.85;;
58581;SDS011;44361;51.476;5.700;2024-03-22T10:42:02;11.30;;;7.25;;
58581;SDS011;44361;51.476;5.700;2024-03-22T10:44:28;14.48;;;8.25;;
58581;SDS011;44361;51.476;5.700;2024-03-22T10:46:54;13.48;;;8.30;;
58581;SDS011;44361;51.476;5.700;2024-03-22T10:49:24;13.00;;;8.57;;
58581;SDS011;44361;51.476;5.700;2024-03-22T10:51:53;15.23;;;8.63;;
58581;SDS011;44361;51.476;5.700;2024-03-22T10:54:24;16.65;;;8.70;;
58581;SDS011;44361;51.476;5.700;2024-03-22T10:56:53;16.00;;;9.45;;
58581;SDS011;44361;51.476;5.700;2024-03-22T10:59:19;14.68;;;8.20;;
58581;SDS011;44361;51.476;5.700;2024-03-22T11:01:47;15.57;;;10.13;;
58581;SDS011;44361;51.476;5.700;2024-03-22T11:04:17;15.40;;;9.70;;
58581;SDS011;44361;51.476;5.700;2024-03-22T11:06:48;14.13;;;8.35;;
58581;SDS011;44361;51.476;5.700;2024-03-22T11:09:21;20.10;;;8.85;;
58581;SDS011;44361;51.476;5.700;2024-03-22T11:11:46;17.58;;;9.73;;
58581;SDS011;44361;51.476;5.700;2024-03-22T11:14:12;13.88;;;9.02;;
58581;SDS011;44361;51.476;5.700;2024-03-22T11:16:38;17.92;;;8.82;;
58581;SDS011;44361;51.476;5.700;2024-03-22T11:19:04;15.48;;;8.73;;
58581;SDS011;44361;51.476;5.700;2024-03-22T11:21:32;14.77;;;9.60;;
58581;SDS011;44361;51.476;5.700;2024-03-22T11:24:00;14.73;;;9.70;;
58581;SDS011;44361;51.476;5.700;2024-03-22T11:26:26;16.00;;;9.77;;
58581;SDS011;44361;51.476;5.700;2024-03-22T11:28:51;15.50;;;9.57;;
58581;SDS011;44361;51.476;5.700;2024-03-22T11:31:17;13.90;;;9.18;;
58581;SDS011;44361;51.476;5.700;2024-03-22T11:33:45;14.32;;;8.57;;
58581;SDS011;44361;51.476;5.700;2024-03-22T11:36:11;16.02;;;8.93;;
58581;SDS011;44361;51.476;5.700;2024-03-22T11:38:36;17.02;;;10.35;;
58581;SDS011;44361;51.476;5.700;2024-03-22T11:41:02;12.95;;;9.73;;
58581;SDS011;44361;51.476;5.700;2024-03-22T11:43:28;16.83;;;9.57;;
58581;SDS011;44361;51.476;5.700;2024-03-22T11:45:55;16.63;;;10.57;;
58581;SDS011;44361;51.476;5.700;2024-03-22T11:48:21;19.08;;;9.98;;
58581;SDS011;44361;51.476;5.700;2024-03-22T11:50:47;23.70;;;12.05;;
58581;SDS011;44361;51.476;5.700;2024-03-22T11:53:13;20.67;;;12.77;;
58581;SDS011;44361;51.476;5.700;2024-03-22T11:55:41;20.90;;;11.57;;
58581;SDS011;44361;51.476;5.700;2024-03-22T11:58:08;20.75;;;12.23;;
58581;SDS011;44361;51.476;5.700;2024-03-22T12:00:35;25.42;;;14.25;;
58581;SDS011;44361;51.476;5.700;2024-03-22T12:03:02;25.23;;;14.40;;
58581;SDS011;44361;51.476;5.700;2024-03-22T12:05:31;28.30;;;15.70;;
58581;SDS011;44361;51.476;5.700;2024-03-22T12:07:57;27.70;;;16.17;;
58581;SDS011;44361;51.476;5.700;2024-03-22T12:10:22;26.35;;;15.32;;
58581;SDS011;44361;51.476;5.700;2024-03-22T12:12:49;27.33;;;15.95;;
58581;SDS011;44361;51.476;5.700;2024-03-22T12:15:15;23.38;;;16.15;;
58581;SDS011;44361;51.476;5.700;2024-03-22T12:17:41;28.75;;;16.25;;
58581;SDS011;44361;51.476;5.700;2024-03-22T12:20:08;24.52;;;15.85;;
58581;SDS011;44361;51.476;5.700;2024-03-22T12:22:34;26.33;;;15.90;;
58581;SDS011;44361;51.476;5.700;2024-03-22T12:25:00;24.52;;;15.52;;
58581;SDS011;44361;51.476;5.700;2024-03-22T12:27:27;24.15;;;15.10;;
58581;SDS011;44361;51.476;5.700;2024-03-22T12:29:52;25.05;;;16.15;;
58581;SDS011;44361;51.476;5.700;2024-03-22T12:32:18;27.65;;;15.10;;
58581;SDS011;44361;51.476;5.700;2024-03-22T12:34:44;29.25;;;16.75;;
58581;SDS011;44361;51.476;5.700;2024-03-22T12:37:09;26.90;;;16.35;;
58581;SDS011;44361;51.476;5.700;2024-03-22T12:39:35;24.20;;;13.15;;
58581;SDS011;44361;51.476;5.700;2024-03-22T12:42:02;21.88;;;13.70;;
58581;SDS011;44361;51.476;5.700;2024-03-22T12:44:28;25.65;;;15.07;;
58581;SDS011;44361;51.476;5.700;2024-03-22T12:46:53;25.45;;;14.52;;
58581;SDS011;44361;51.476;5.700;2024-03-22T12:49:19;28.55;;;15.40;;
58581;SDS011;44361;51.476;5.700;2024-03-22T12:51:45;28.48;;;15.23;;
58581;SDS011;44361;51.476;5.700;2024-03-22T12:54:11;30.60;;;16.40;;
58581;SDS011;44361;51.476;5.700;2024-03-22T12:56:39;26.17;;;16.00;;
58581;SDS011;44361;51.476;5.700;2024-03-22T12:59:05;25.02;;;14.77;;
58581;SDS011;44361;51.476;5.700;2024-03-22T13:01:33;21.95;;;13.93;;
58581;SDS011;44361;51.476;5.700;2024-03-22T13:04:02;26.35;;;15.88;;
58581;SDS011;44361;51.476;5.700;2024-03-22T13:06:27;27.17;;;15.90;;
58581;SDS011;44361;51.476;5.700;2024-03-22T13:08:53;26.48;;;16.23;;
58581;SDS011;44361;51.476;5.700;2024-03-22T13:11:19;27.05;;;17.02;;
58581;SDS011;44361;51.476;5.700;2024-03-22T13:13:44;26.38;;;16.95;;
58581;SDS011;44361;51.476;5.700;2024-03-22T13:16:10;28.55;;;17.15;;
58581;SDS011;44361;51.476;5.700;2024-03-22T13:18:39;28.10;;;16.38;;
58581;SDS011;44361;51.476;5.700;2024-03-22T13:21:05;28.77;;;17.52;;
58581;SDS011;44361;51.476;5.700;2024-03-22T13:23:31;31.52;;;17.45;;
58581;SDS011;44361;51.476;5.700;2024-03-22T13:25:57;33.70;;;17.58;;
58581;SDS011;44361;51.476;5.700;2024-03-22T13:28:27;29.52;;;17.73;;
58581;SDS011;44361;51.476;5.700;2024-03-22T13:31:02;27.83;;;16.50;;
58581;SDS011;44361;51.476;5.700;2024-03-22T13:33:28;26.70;;;17.48;;
58581;SDS011;44361;51.476;5.700;2024-03-22T13:35:55;31.77;;;18.13;;
58581;SDS011;44361;51.476;5.700;2024-03-22T13:38:20;35.15;;;18.52;;
58581;SDS011;44361;51.476;5.700;2024-03-22T13:40:55;29.70;;;17.98;;
58581;SDS011;44361;51.476;5.700;2024-03-22T13:43:22;24.08;;;14.38;;
58581;SDS011;44361;51.476;5.700;2024-03-22T13:45:51;28.75;;;14.27;;
58581;SDS011;44361;51.476;5.700;2024-03-22T13:48:23;26.05;;;13.95;;
58581;SDS011;44361;51.476;5.700;2024-03-22T13:50:53;20.30;;;12.35;;
58581;SDS011;44361;51.476;5.700;2024-03-22T13:53:20;25.25;;;14.95;;
58581;SDS011;44361;51.476;5.700;2024-03-22T13:55:49;17.52;;;11.50;;
58581;SDS011;44361;51.476;5.700;2024-03-22T13:58:15;21.02;;;11.65;;
58581;SDS011;44361;51.476;5.700;2024-03-22T14:00:41;19.30;;;10.63;;
58581;SDS011;44361;51.476;5.700;2024-03-22T14:03:07;18.95;;;13.38;;
58581;SDS011;44361;51.476;5.700;2024-03-22T14:05:32;15.80;;;10.38;;
58581;SDS011;44361;51.476;5.700;2024-03-22T14:08:01;19.10;;;10.75;;
58581;SDS011;44361;51.476;5.700;2024-03-22T14:10:28;15.73;;;8.82;;
58581;SDS011;44361;51.476;5.700;2024-03-22T14:12:56;13.93;;;9.68;;
58581;SDS011;44361;51.476;5.700;2024-03-22T14:15:22;12.52;;;8.25;;
58581;SDS011;44361;51.476;5.700;2024-03-22T14:17:52;15.35;;;9.15;;
58581;SDS011;44361;51.476;5.700;2024-03-22T14:20:18;10.65;;;6.55;;